createdAt,value
2017-12-29T00:00:22.318Z,932.15
2017-12-29T00:00:50.184Z,932.13
2017-12-29T00:01:18.012Z,932.13
2017-12-29T00:01:46.012Z,932.08
2017-12-29T00:02:14.159Z,932.13
2017-12-29T00:02:42.190Z,932.12
2017-12-29T00:03:10.236Z,932.14
2017-12-29T00:03:38.261Z,932.18
2017-12-29T00:04:06.364Z,932.16
2017-12-29T00:04:34.532Z,932.13
2017-12-29T00:05:02.558Z,932.18
2017-12-29T00:05:30.660Z,932.13
2017-12-29T00:05:58.620Z,932.15
2017-12-29T00:06:26.542Z,932.16
2017-12-29T00:06:54.593Z,932.16
2017-12-29T00:07:22.599Z,932.1
2017-12-29T00:07:50.613Z,932.17
2017-12-29T00:08:18.556Z,932.19
2017-12-29T00:08:46.482Z,932.18
2017-12-29T00:09:14.422Z,932.15
2017-12-29T00:09:42.114Z,932.21
2017-12-29T00:10:10.022Z,932.23
2017-12-29T00:10:37.922Z,932.23
2017-12-29T00:11:05.805Z,932.23
2017-12-29T00:11:33.785Z,932.3
2017-12-29T00:12:01.745Z,932.27
2017-12-29T00:12:29.628Z,932.27
2017-12-29T00:12:57.583Z,932.29
2017-12-29T00:13:25.696Z,932.3
2017-12-29T00:13:53.493Z,932.36
2017-12-29T00:14:21.433Z,932.34
2017-12-29T00:14:49.600Z,932.34
2017-12-29T00:15:17.723Z,932.39
2017-12-29T00:15:45.858Z,932.36
2017-12-29T00:16:13.884Z,932.41
2017-12-29T00:16:41.898Z,932.38
2017-12-29T00:17:09.827Z,932.43
2017-12-29T00:17:37.867Z,932.43
2017-12-29T00:18:05.857Z,932.41
2017-12-29T00:18:33.700Z,932.44
2017-12-29T00:19:01.678Z,932.42
2017-12-29T00:19:29.631Z,932.46
2017-12-29T00:19:57.655Z,932.41
2017-12-29T00:20:25.762Z,932.45
2017-12-29T00:20:53.675Z,932.41
2017-12-29T00:21:21.727Z,932.46
2017-12-29T00:21:49.836Z,932.46
2017-12-29T00:22:17.862Z,932.46
2017-12-29T00:22:45.928Z,932.45
2017-12-29T00:23:14.045Z,932.47
2017-12-29T00:23:42.215Z,932.49
2017-12-29T00:24:10.037Z,932.45
2017-12-29T00:24:38.029Z,932.49
2017-12-29T00:25:06.074Z,932.48
2017-12-29T00:25:34.336Z,932.5
2017-12-29T00:26:02.344Z,932.49
2017-12-29T00:26:30.404Z,932.5
2017-12-29T00:26:58.420Z,932.5
2017-12-29T00:27:26.240Z,932.49
2017-12-29T00:27:54.314Z,932.52
2017-12-29T00:28:22.367Z,932.52
2017-12-29T00:28:50.308Z,932.47
2017-12-29T00:29:18.437Z,932.52
2017-12-29T00:29:46.376Z,932.51
2017-12-29T00:30:14.419Z,932.47
2017-12-29T00:30:42.435Z,932.47
2017-12-29T00:31:10.383Z,932.51
2017-12-29T00:31:38.407Z,932.48
2017-12-29T00:32:06.618Z,932.5
2017-12-29T00:32:34.525Z,932.48
2017-12-29T00:33:02.554Z,932.52
2017-12-29T00:33:30.373Z,932.49
2017-12-29T00:33:58.503Z,932.54
2017-12-29T00:34:26.519Z,932.49
2017-12-29T00:34:54.659Z,932.54
2017-12-29T00:35:22.825Z,932.59
2017-12-29T00:35:50.743Z,932.51
2017-12-29T00:36:18.928Z,932.61
2017-12-29T00:36:46.844Z,932.58
2017-12-29T00:37:14.772Z,932.62
2017-12-29T00:37:42.721Z,932.71
2017-12-29T00:38:10.683Z,932.73
2017-12-29T00:38:38.665Z,932.72
2017-12-29T00:39:06.842Z,932.71
2017-12-29T00:39:34.776Z,932.74
2017-12-29T00:40:02.695Z,932.69
2017-12-29T00:40:30.711Z,932.73
2017-12-29T00:40:58.711Z,932.72
2017-12-29T00:41:26.830Z,932.71
2017-12-29T00:41:54.899Z,932.78
2017-12-29T00:42:22.906Z,932.79
2017-12-29T00:42:50.831Z,932.8
2017-12-29T00:43:18.901Z,932.8
2017-12-29T00:43:46.900Z,932.84
2017-12-29T00:44:14.891Z,932.82
2017-12-29T00:44:42.949Z,932.87
2017-12-29T00:45:10.764Z,932.87
2017-12-29T00:45:38.799Z,932.92
2017-12-29T00:46:06.879Z,932.92
2017-12-29T00:46:35.014Z,932.95
2017-12-29T00:47:03.045Z,932.9
2017-12-29T00:47:31.052Z,932.94
2017-12-29T00:47:59.163Z,932.97
2017-12-29T00:48:27.227Z,932.97
2017-12-29T00:48:55.327Z,932.98
2017-12-29T00:49:23.478Z,933
2017-12-29T00:49:51.447Z,933
2017-12-29T00:50:19.423Z,933.02
2017-12-29T00:50:47.590Z,933.03
2017-12-29T00:51:15.631Z,933.03
2017-12-29T00:51:43.654Z,933.04
2017-12-29T00:52:11.631Z,932.98
2017-12-29T00:52:39.761Z,933.09
2017-12-29T00:53:07.693Z,933.07
2017-12-29T00:53:35.720Z,933.08
2017-12-29T00:54:03.829Z,933.08
2017-12-29T00:54:31.713Z,933.09
2017-12-29T00:54:59.849Z,933.1
2017-12-29T00:55:28.001Z,933.1
2017-12-29T00:55:56.093Z,933.08
2017-12-29T00:56:24.144Z,933.11
2017-12-29T00:56:52.110Z,933.1
2017-12-29T00:57:20.163Z,933.07
2017-12-29T00:57:49.081Z,933.09
2017-12-29T00:58:17.125Z,933.08
2017-12-29T00:58:45.261Z,933.07
2017-12-29T00:59:13.284Z,933.07
2017-12-29T00:59:41.458Z,933.06
2017-12-29T01:00:09.608Z,933.08
2017-12-29T01:00:37.645Z,933.1
2017-12-29T01:01:05.806Z,933.1
2017-12-29T01:01:33.868Z,933.11
2017-12-29T01:02:01.944Z,933.11
2017-12-29T01:02:30.106Z,933.12
2017-12-29T01:02:58.136Z,933.11
2017-12-29T01:03:26.118Z,933.12
2017-12-29T01:03:54.283Z,933.14
2017-12-29T01:04:22.249Z,933.14
2017-12-29T01:04:50.315Z,933.17
2017-12-29T01:05:18.308Z,933.17
2017-12-29T01:05:46.435Z,933.14
2017-12-29T01:06:14.544Z,933.2
2017-12-29T01:06:42.663Z,933.17
2017-12-29T01:07:10.502Z,933.22
2017-12-29T01:07:38.326Z,933.15
2017-12-29T01:08:06.256Z,933.16
2017-12-29T01:08:34.356Z,933.16
2017-12-29T01:09:02.478Z,933.14
2017-12-29T01:09:30.304Z,933.18
2017-12-29T01:09:58.097Z,933.21
2017-12-29T01:10:26.099Z,933.17
2017-12-29T01:10:54.100Z,933.18
2017-12-29T01:11:22.207Z,933.15
2017-12-29T01:11:50.328Z,933.22
2017-12-29T01:12:18.442Z,933.15
2017-12-29T01:12:47.219Z,933.15
2017-12-29T01:13:15.338Z,933.16
2017-12-29T01:13:43.389Z,933.17
2017-12-29T01:14:11.463Z,933.16
2017-12-29T01:14:39.653Z,933.16
2017-12-29T01:15:07.762Z,933.17
2017-12-29T01:15:35.842Z,933.19
2017-12-29T01:16:03.758Z,933.17
2017-12-29T01:16:31.876Z,933.15
2017-12-29T01:16:59.803Z,933.14
2017-12-29T01:17:27.831Z,933.14
2017-12-29T01:17:55.933Z,933.15
2017-12-29T01:18:23.834Z,933.1
2017-12-29T01:18:51.828Z,933.07
2017-12-29T01:19:19.734Z,933.13
2017-12-29T01:19:47.761Z,933.11
2017-12-29T01:20:15.780Z,933.08
2017-12-29T01:20:43.873Z,933.08
2017-12-29T01:21:11.792Z,933.09
2017-12-29T01:21:39.705Z,933.07
2017-12-29T01:22:07.829Z,933.09
2017-12-29T01:22:35.992Z,933.06
2017-12-29T01:23:04.083Z,933.05
2017-12-29T01:23:32.097Z,933.08
2017-12-29T01:24:00.246Z,933.06
2017-12-29T01:24:28.278Z,933.05
2017-12-29T01:24:56.259Z,933.07
2017-12-29T01:25:24.342Z,933.05
2017-12-29T01:25:52.433Z,933.05
2017-12-29T01:26:20.594Z,933
2017-12-29T01:26:49.268Z,933.05
2017-12-29T01:27:17.409Z,933.04
2017-12-29T01:27:45.483Z,933.06
2017-12-29T01:28:13.480Z,933.01
2017-12-29T01:28:41.461Z,933.01
2017-12-29T01:29:09.473Z,932.97
2017-12-29T01:29:37.538Z,932.95
2017-12-29T01:30:05.647Z,932.96
2017-12-29T01:30:33.674Z,932.96
2017-12-29T01:31:01.788Z,932.98
2017-12-29T01:31:29.804Z,932.95
2017-12-29T01:31:57.628Z,932.98
2017-12-29T01:32:25.575Z,932.95
2017-12-29T01:32:53.727Z,932.92
2017-12-29T01:33:21.740Z,932.93
2017-12-29T01:33:49.577Z,932.9
2017-12-29T01:34:17.420Z,932.91
2017-12-29T01:34:45.574Z,932.87
2017-12-29T01:35:13.625Z,932.88
2017-12-29T01:35:41.756Z,932.87
2017-12-29T01:36:09.961Z,932.89
2017-12-29T01:36:38.036Z,932.87
2017-12-29T01:37:06.061Z,932.85
2017-12-29T01:37:34.080Z,932.86
2017-12-29T01:38:02.024Z,932.84
2017-12-29T01:38:29.967Z,932.87
2017-12-29T01:38:57.896Z,932.86
2017-12-29T01:39:25.981Z,932.86
2017-12-29T01:39:54.035Z,932.82
2017-12-29T01:40:21.897Z,932.8
2017-12-29T01:40:49.670Z,932.84
2017-12-29T01:41:17.828Z,932.8
2017-12-29T01:41:46.010Z,932.78
2017-12-29T01:42:14.073Z,932.78
2017-12-29T01:42:41.989Z,932.83
2017-12-29T01:43:10.011Z,932.81
2017-12-29T01:43:37.846Z,932.81
2017-12-29T01:44:05.846Z,932.79
2017-12-29T01:44:33.891Z,932.81
2017-12-29T01:45:01.992Z,932.79
2017-12-29T01:45:30.089Z,932.85
2017-12-29T01:45:58.181Z,932.82
2017-12-29T01:46:26.191Z,932.81
2017-12-29T01:46:54.127Z,932.82
2017-12-29T01:47:22.061Z,932.84
2017-12-29T01:47:50.009Z,932.8
2017-12-29T01:48:18.053Z,932.8
2017-12-29T01:48:46.128Z,932.81
2017-12-29T01:49:14.156Z,932.79
2017-12-29T01:49:42.223Z,932.82
2017-12-29T01:50:10.245Z,932.81
2017-12-29T01:50:38.195Z,932.78
2017-12-29T01:51:06.422Z,932.8
2017-12-29T01:51:34.323Z,932.83
2017-12-29T01:52:02.151Z,932.81
2017-12-29T01:52:30.033Z,932.81
2017-12-29T01:52:58.178Z,932.78
2017-12-29T01:53:25.910Z,932.75
2017-12-29T01:53:53.921Z,932.79
2017-12-29T01:54:21.764Z,932.78
2017-12-29T01:54:49.804Z,932.79
2017-12-29T01:55:17.793Z,932.78
2017-12-29T01:55:45.883Z,932.78
2017-12-29T01:56:13.805Z,932.75
2017-12-29T01:56:41.931Z,932.7
2017-12-29T01:57:09.867Z,932.72
2017-12-29T01:57:37.874Z,932.74
2017-12-29T01:58:05.994Z,932.74
2017-12-29T01:58:33.943Z,932.74
2017-12-29T01:59:01.939Z,932.71
2017-12-29T01:59:29.962Z,932.71
2017-12-29T01:59:57.888Z,932.75
2017-12-29T02:00:25.885Z,932.74
2017-12-29T02:00:53.837Z,932.72
2017-12-29T02:01:21.769Z,932.75
2017-12-29T02:01:49.645Z,932.71
2017-12-29T02:02:17.462Z,932.72
2017-12-29T02:02:45.488Z,932.69
2017-12-29T02:03:13.350Z,932.67
2017-12-29T02:03:41.345Z,932.64
2017-12-29T02:04:09.190Z,932.67
2017-12-29T02:04:37.271Z,932.65
2017-12-29T02:05:05.267Z,932.66
2017-12-29T02:05:33.245Z,932.63
2017-12-29T02:06:01.288Z,932.63
2017-12-29T02:06:29.298Z,932.63
2017-12-29T02:06:57.427Z,932.61
2017-12-29T02:07:25.461Z,932.6
2017-12-29T02:07:53.463Z,932.6
2017-12-29T02:08:21.540Z,932.6
2017-12-29T02:08:49.697Z,932.56
2017-12-29T02:09:17.750Z,932.59
2017-12-29T02:09:45.757Z,932.62
2017-12-29T02:10:13.812Z,932.62
2017-12-29T02:10:41.986Z,932.62
2017-12-29T02:11:09.878Z,932.58
2017-12-29T02:11:37.974Z,932.56
2017-12-29T02:12:05.999Z,932.6
2017-12-29T02:12:34.032Z,932.58
2017-12-29T02:13:02.046Z,932.61
2017-12-29T02:13:30.075Z,932.57
2017-12-29T02:13:58.203Z,932.6
2017-12-29T02:14:26.183Z,932.61
2017-12-29T02:14:54.195Z,932.59
2017-12-29T02:15:22.205Z,932.57
2017-12-29T02:15:50.021Z,932.57
2017-12-29T02:16:18.386Z,932.55
2017-12-29T02:16:46.465Z,932.57
2017-12-29T02:17:14.546Z,932.58
2017-12-29T02:17:42.580Z,932.55
2017-12-29T02:18:10.685Z,932.53
2017-12-29T02:18:38.795Z,932.56
2017-12-29T02:19:06.873Z,932.52
2017-12-29T02:19:34.952Z,932.55
2017-12-29T02:20:03.075Z,932.52
2017-12-29T02:20:31.549Z,932.5
2017-12-29T02:20:59.970Z,932.51
2017-12-29T02:21:28.678Z,932.48
2017-12-29T02:21:57.177Z,932.49
2017-12-29T02:22:25.554Z,932.42
2017-12-29T02:22:54.141Z,932.43
2017-12-29T02:23:22.767Z,932.46
2017-12-29T02:23:51.351Z,932.45
2017-12-29T02:24:19.879Z,932.44
2017-12-29T02:24:48.478Z,932.45
2017-12-29T02:25:16.911Z,932.42
2017-12-29T02:25:45.489Z,932.41
2017-12-29T02:26:14.060Z,932.37
2017-12-29T02:26:42.652Z,932.41
2017-12-29T02:27:11.092Z,932.37
2017-12-29T02:27:39.584Z,932.35
2017-12-29T02:28:07.952Z,932.34
2017-12-29T02:28:36.529Z,932.36
2017-12-29T02:29:05.167Z,932.32
2017-12-29T02:29:33.540Z,932.32
2017-12-29T02:30:02.122Z,932.34
2017-12-29T02:30:30.793Z,932.33
2017-12-29T02:30:59.430Z,932.3
2017-12-29T02:31:28.017Z,932.31
2017-12-29T02:31:56.679Z,932.32
2017-12-29T02:32:25.188Z,932.32
2017-12-29T02:32:53.815Z,932.28
2017-12-29T02:33:22.438Z,932.29
2017-12-29T02:33:51.070Z,932.29
2017-12-29T02:34:19.494Z,932.25
2017-12-29T02:34:48.154Z,932.28
2017-12-29T02:35:16.560Z,932.28
2017-12-29T02:35:45.182Z,932.24
2017-12-29T02:36:13.695Z,932.26
2017-12-29T02:36:42.358Z,932.28
2017-12-29T02:37:10.930Z,932.25
2017-12-29T02:37:39.382Z,932.17
2017-12-29T02:38:07.848Z,932.2
2017-12-29T02:38:36.425Z,932.23
2017-12-29T02:39:05.010Z,932.25
2017-12-29T02:39:33.521Z,932.2
2017-12-29T02:40:01.996Z,932.21
2017-12-29T02:40:30.511Z,932.19
2017-12-29T02:40:59.112Z,932.22
2017-12-29T02:41:27.720Z,932.22
2017-12-29T02:41:56.121Z,932.2
2017-12-29T02:42:24.717Z,932.21
2017-12-29T02:42:53.328Z,932.21
2017-12-29T02:43:21.734Z,932.24
2017-12-29T02:43:50.278Z,932.25
2017-12-29T02:44:18.764Z,932.25
2017-12-29T02:44:47.393Z,932.28
2017-12-29T02:45:15.878Z,932.27
2017-12-29T02:45:44.464Z,932.29
2017-12-29T02:46:13.001Z,932.29
2017-12-29T02:46:41.621Z,932.26
2017-12-29T02:47:10.120Z,932.28
2017-12-29T02:47:38.663Z,932.27
2017-12-29T02:48:07.125Z,932.25
2017-12-29T02:48:35.705Z,932.3
2017-12-29T02:49:04.225Z,932.26
2017-12-29T02:49:32.864Z,932.29
2017-12-29T02:50:01.233Z,932.29
2017-12-29T02:50:29.767Z,932.27
2017-12-29T02:50:58.294Z,932.32
2017-12-29T02:51:26.728Z,932.26
2017-12-29T02:51:55.683Z,932.29
2017-12-29T02:52:24.311Z,932.3
2017-12-29T02:52:52.931Z,932.24
2017-12-29T02:53:21.577Z,932.29
2017-12-29T02:53:50.177Z,932.26
2017-12-29T02:54:18.641Z,932.28
2017-12-29T02:54:47.247Z,932.26
2017-12-29T02:55:15.766Z,932.27
2017-12-29T02:55:44.386Z,932.3
2017-12-29T02:56:12.982Z,932.29
2017-12-29T02:56:41.515Z,932.28
2017-12-29T02:57:10.099Z,932.28
2017-12-29T02:57:38.677Z,932.31
2017-12-29T02:58:07.184Z,932.25
2017-12-29T02:58:35.702Z,932.29
2017-12-29T02:59:04.327Z,932.23
2017-12-29T02:59:32.843Z,932.24
2017-12-29T03:00:01.452Z,932.23
2017-12-29T03:00:30.006Z,932.23
2017-12-29T03:00:58.580Z,932.21
2017-12-29T03:01:27.146Z,932.21
2017-12-29T03:01:55.596Z,932.17
2017-12-29T03:02:24.215Z,932.18
2017-12-29T03:02:52.740Z,932.15
2017-12-29T03:03:21.340Z,932.15
2017-12-29T03:03:49.861Z,932.15
2017-12-29T03:04:18.482Z,932.15
2017-12-29T03:04:46.957Z,932.14
2017-12-29T03:05:15.526Z,932.12
2017-12-29T03:05:44.125Z,932.12
2017-12-29T03:06:12.648Z,932.12
2017-12-29T03:06:41.268Z,932.1
2017-12-29T03:07:09.884Z,932.11
2017-12-29T03:07:38.355Z,932.08
2017-12-29T03:08:06.944Z,932.1
2017-12-29T03:08:35.330Z,932.09
2017-12-29T03:09:03.829Z,932.12
2017-12-29T03:09:32.484Z,932.14
2017-12-29T03:10:01.076Z,932.08
2017-12-29T03:10:29.372Z,932.11
2017-12-29T03:10:58.002Z,932.12
2017-12-29T03:11:26.624Z,932.1
2017-12-29T03:11:55.208Z,932.11
2017-12-29T03:12:23.757Z,932.11
2017-12-29T03:12:52.453Z,932.1
2017-12-29T03:13:21.066Z,932.09
2017-12-29T03:13:49.637Z,932.12
2017-12-29T03:14:18.152Z,932.07
2017-12-29T03:14:46.584Z,932.07
2017-12-29T03:15:15.167Z,932.08
2017-12-29T03:15:43.639Z,931.99
2017-12-29T03:16:12.168Z,932.03
2017-12-29T03:16:40.721Z,932.06
2017-12-29T03:17:09.306Z,931.99
2017-12-29T03:17:37.818Z,931.97
2017-12-29T03:18:06.366Z,931.96
2017-12-29T03:18:34.754Z,931.96
2017-12-29T03:19:03.382Z,931.93
2017-12-29T03:19:31.963Z,931.9
2017-12-29T03:20:00.515Z,931.94
2017-12-29T03:20:28.737Z,931.91
2017-12-29T03:20:57.314Z,931.9
2017-12-29T03:21:25.900Z,931.89
2017-12-29T03:21:54.776Z,931.85
2017-12-29T03:22:23.199Z,931.87
2017-12-29T03:22:51.750Z,931.85
2017-12-29T03:23:20.349Z,931.85
2017-12-29T03:23:48.854Z,931.86
2017-12-29T03:24:17.352Z,931.88
2017-12-29T03:24:45.844Z,931.83
2017-12-29T03:25:14.471Z,931.84
2017-12-29T03:25:43.114Z,931.85
2017-12-29T03:26:11.414Z,931.87
2017-12-29T03:26:39.886Z,931.85
2017-12-29T03:27:08.284Z,931.81
2017-12-29T03:27:36.805Z,931.87
2017-12-29T03:28:05.424Z,931.81
2017-12-29T03:28:34.007Z,931.78
2017-12-29T03:29:02.460Z,931.79
2017-12-29T03:29:30.957Z,931.8
2017-12-29T03:29:59.389Z,931.77
2017-12-29T03:30:27.972Z,931.76
2017-12-29T03:30:56.614Z,931.78
2017-12-29T03:31:25.226Z,931.78
2017-12-29T03:31:53.794Z,931.76
2017-12-29T03:32:22.312Z,931.74
2017-12-29T03:32:50.881Z,931.74
2017-12-29T03:33:19.513Z,931.74
2017-12-29T03:33:47.916Z,931.72
2017-12-29T03:34:16.536Z,931.71
2017-12-29T03:34:45.165Z,931.68
2017-12-29T03:35:13.660Z,931.67
2017-12-29T03:35:42.274Z,931.66
2017-12-29T03:36:10.711Z,931.69
2017-12-29T03:36:39.233Z,931.66
2017-12-29T03:37:07.888Z,931.65
2017-12-29T03:37:36.532Z,931.63
2017-12-29T03:38:05.098Z,931.63
2017-12-29T03:38:33.593Z,931.65
2017-12-29T03:39:02.094Z,931.63
2017-12-29T03:39:30.511Z,931.61
2017-12-29T03:39:59.122Z,931.63
2017-12-29T03:40:27.757Z,931.63
2017-12-29T03:40:56.260Z,931.62
2017-12-29T03:41:24.922Z,931.61
2017-12-29T03:41:53.340Z,931.62
2017-12-29T03:42:21.907Z,931.61
2017-12-29T03:42:50.309Z,931.59
2017-12-29T03:43:18.844Z,931.64
2017-12-29T03:43:47.457Z,931.6
2017-12-29T03:44:15.991Z,931.6
2017-12-29T03:44:44.627Z,931.58
2017-12-29T03:45:13.292Z,931.56
2017-12-29T03:45:41.648Z,931.57
2017-12-29T03:46:10.255Z,931.59
2017-12-29T03:46:38.900Z,931.55
2017-12-29T03:47:07.402Z,931.58
2017-12-29T03:47:35.948Z,931.58
2017-12-29T03:48:04.540Z,931.57
2017-12-29T03:48:33.144Z,931.55
2017-12-29T03:49:01.735Z,931.57
2017-12-29T03:49:30.373Z,931.56
2017-12-29T03:49:58.976Z,931.55
2017-12-29T03:50:27.465Z,931.56
2017-12-29T03:50:55.961Z,931.56
2017-12-29T03:51:24.359Z,931.5
2017-12-29T03:51:52.922Z,931.57
2017-12-29T03:52:21.774Z,931.53
2017-12-29T03:52:50.375Z,931.51
2017-12-29T03:53:18.863Z,931.52
2017-12-29T03:53:47.441Z,931.52
2017-12-29T03:54:16.756Z,931.49
2017-12-29T03:54:45.273Z,931.51
2017-12-29T03:55:13.669Z,931.5
2017-12-29T03:55:42.231Z,931.47
2017-12-29T03:56:10.694Z,931.45
2017-12-29T03:56:39.127Z,931.49
2017-12-29T03:57:07.771Z,931.43
2017-12-29T03:57:36.262Z,931.46
2017-12-29T03:58:04.829Z,931.4
2017-12-29T03:58:33.235Z,931.44
2017-12-29T03:59:01.857Z,931.42
2017-12-29T03:59:30.440Z,931.4
2017-12-29T03:59:58.842Z,931.37
2017-12-29T04:00:27.414Z,931.35
2017-12-29T04:00:56.013Z,931.34
2017-12-29T04:01:24.611Z,931.33
2017-12-29T04:01:53.198Z,931.33
2017-12-29T04:02:21.523Z,931.34
2017-12-29T04:02:50.031Z,931.34
2017-12-29T04:03:18.660Z,931.3
2017-12-29T04:03:47.274Z,931.29
2017-12-29T04:04:15.769Z,931.32
2017-12-29T04:04:44.161Z,931.31
2017-12-29T04:05:12.725Z,931.32
2017-12-29T04:05:41.324Z,931.3
2017-12-29T04:06:09.852Z,931.31
2017-12-29T04:06:38.470Z,931.3
2017-12-29T04:07:06.885Z,931.27
2017-12-29T04:07:35.587Z,931.29
2017-12-29T04:08:04.191Z,931.28
2017-12-29T04:08:32.636Z,931.27
2017-12-29T04:09:01.001Z,931.27
2017-12-29T04:09:29.641Z,931.29
2017-12-29T04:09:58.198Z,931.31
2017-12-29T04:10:26.576Z,931.29
2017-12-29T04:10:55.197Z,931.31
2017-12-29T04:11:23.828Z,931.24
2017-12-29T04:11:52.224Z,931.28
2017-12-29T04:12:20.748Z,931.25
2017-12-29T04:12:49.279Z,931.25
2017-12-29T04:13:17.675Z,931.25
2017-12-29T04:13:46.308Z,931.2
2017-12-29T04:14:14.928Z,931.21
2017-12-29T04:14:43.296Z,931.23
2017-12-29T04:15:11.703Z,931.16
2017-12-29T04:15:40.186Z,931.19
2017-12-29T04:16:08.807Z,931.13
2017-12-29T04:16:37.427Z,931.13
2017-12-29T04:17:05.958Z,931.14
2017-12-29T04:17:34.424Z,931.19
2017-12-29T04:18:02.916Z,931.18
2017-12-29T04:18:31.483Z,931.16
2017-12-29T04:18:59.931Z,931.15
2017-12-29T04:19:27.844Z,931.19
2017-12-29T04:19:55.823Z,931.17
2017-12-29T04:20:23.812Z,931.16
2017-12-29T04:20:51.937Z,931.14
2017-12-29T04:21:19.982Z,931.14
2017-12-29T04:21:48.111Z,931.15
2017-12-29T04:22:16.143Z,931.16
2017-12-29T04:22:44.436Z,931.12
2017-12-29T04:23:12.567Z,931.12
2017-12-29T04:23:40.374Z,931.14
2017-12-29T04:24:08.406Z,931.1
2017-12-29T04:24:36.381Z,931.09
2017-12-29T04:25:04.443Z,931.12
2017-12-29T04:25:32.563Z,931.09
2017-12-29T04:26:00.710Z,931.09
2017-12-29T04:26:28.767Z,931.06
2017-12-29T04:26:56.912Z,931.07
2017-12-29T04:27:24.840Z,931.08
2017-12-29T04:27:52.977Z,931.04
2017-12-29T04:28:21.112Z,931.04
2017-12-29T04:28:49.194Z,931.03
2017-12-29T04:29:17.209Z,931
2017-12-29T04:29:45.365Z,931.01
2017-12-29T04:30:13.483Z,931.02
2017-12-29T04:30:41.548Z,930.98
2017-12-29T04:31:09.486Z,930.95
2017-12-29T04:31:37.485Z,930.98
2017-12-29T04:32:05.512Z,930.96
2017-12-29T04:32:33.423Z,930.95
2017-12-29T04:33:01.475Z,930.96
2017-12-29T04:33:29.611Z,930.96
2017-12-29T04:33:57.638Z,930.97
2017-12-29T04:34:25.587Z,930.93
2017-12-29T04:34:53.631Z,930.95
2017-12-29T04:35:21.655Z,930.95
2017-12-29T04:35:49.825Z,930.93
2017-12-29T04:36:17.758Z,930.87
2017-12-29T04:36:45.810Z,930.92
2017-12-29T04:37:13.875Z,930.92
2017-12-29T04:37:42.034Z,930.92
2017-12-29T04:38:10.033Z,930.9
2017-12-29T04:38:38.094Z,930.88
2017-12-29T04:39:06.130Z,930.89
2017-12-29T04:39:34.069Z,930.86
2017-12-29T04:40:02.006Z,930.86
2017-12-29T04:40:29.975Z,930.87
2017-12-29T04:40:58.000Z,930.87
2017-12-29T04:41:26.040Z,930.86
2017-12-29T04:41:54.170Z,930.89
2017-12-29T04:42:22.117Z,930.85
2017-12-29T04:42:50.216Z,930.87
2017-12-29T04:43:18.146Z,930.89
2017-12-29T04:43:46.238Z,930.89
2017-12-29T04:44:14.175Z,930.87
2017-12-29T04:44:42.284Z,930.87
2017-12-29T04:45:10.157Z,930.84
2017-12-29T04:45:38.097Z,930.86
2017-12-29T04:46:06.251Z,930.84
2017-12-29T04:46:34.356Z,930.8
2017-12-29T04:47:02.388Z,930.83
2017-12-29T04:47:30.419Z,930.84
2017-12-29T04:47:58.468Z,930.81
2017-12-29T04:48:26.491Z,930.84
2017-12-29T04:48:54.657Z,930.79
2017-12-29T04:49:22.589Z,930.82
2017-12-29T04:49:50.689Z,930.84
2017-12-29T04:50:18.746Z,930.81
2017-12-29T04:50:46.912Z,930.8
2017-12-29T04:51:14.909Z,930.77
2017-12-29T04:51:42.974Z,930.8
2017-12-29T04:52:11.110Z,930.78
2017-12-29T04:52:39.323Z,930.77
2017-12-29T04:53:07.228Z,930.79
2017-12-29T04:53:35.232Z,930.79
2017-12-29T04:54:03.143Z,930.78
2017-12-29T04:54:31.142Z,930.79
2017-12-29T04:54:59.231Z,930.79
2017-12-29T04:55:27.016Z,930.78
2017-12-29T04:55:54.959Z,930.78
2017-12-29T04:56:23.057Z,930.76
2017-12-29T04:56:51.177Z,930.77
2017-12-29T04:57:19.302Z,930.74
2017-12-29T04:57:47.445Z,930.74
2017-12-29T04:58:15.463Z,930.76
2017-12-29T04:58:43.521Z,930.75
2017-12-29T04:59:11.423Z,930.72
2017-12-29T04:59:39.528Z,930.72
2017-12-29T05:00:07.537Z,930.73
2017-12-29T05:00:35.627Z,930.72
2017-12-29T05:01:03.779Z,930.72
2017-12-29T05:01:31.788Z,930.68
2017-12-29T05:01:59.678Z,930.7
2017-12-29T05:02:27.614Z,930.67
2017-12-29T05:02:55.626Z,930.67
2017-12-29T05:03:23.691Z,930.65
2017-12-29T05:03:51.720Z,930.62
2017-12-29T05:04:19.966Z,930.63
2017-12-29T05:04:48.114Z,930.6
2017-12-29T05:05:16.040Z,930.62
2017-12-29T05:05:44.064Z,930.6
2017-12-29T05:06:12.164Z,930.6
2017-12-29T05:06:40.133Z,930.6
2017-12-29T05:07:08.252Z,930.63
2017-12-29T05:07:36.315Z,930.58
2017-12-29T05:08:04.372Z,930.55
2017-12-29T05:08:32.672Z,930.55
2017-12-29T05:09:00.788Z,930.55
2017-12-29T05:09:28.721Z,930.55
2017-12-29T05:09:56.854Z,930.6
2017-12-29T05:10:24.978Z,930.56
2017-12-29T05:10:53.189Z,930.58
2017-12-29T05:11:21.138Z,930.58
2017-12-29T05:11:48.986Z,930.54
2017-12-29T05:12:16.959Z,930.57
2017-12-29T05:12:44.869Z,930.53
2017-12-29T05:13:13.012Z,930.52
2017-12-29T05:13:41.146Z,930.51
2017-12-29T05:14:09.189Z,930.53
2017-12-29T05:14:37.303Z,930.5
2017-12-29T05:15:05.105Z,930.5
2017-12-29T05:15:32.916Z,930.47
2017-12-29T05:16:00.849Z,930.45
2017-12-29T05:16:28.912Z,930.45
2017-12-29T05:16:56.814Z,930.43
2017-12-29T05:17:24.846Z,930.44
2017-12-29T05:17:52.989Z,930.39
2017-12-29T05:18:20.919Z,930.42
2017-12-29T05:18:49.008Z,930.43
2017-12-29T05:19:17.125Z,930.43
2017-12-29T05:19:45.235Z,930.39
2017-12-29T05:20:13.228Z,930.42
2017-12-29T05:20:41.205Z,930.43
2017-12-29T05:21:09.345Z,930.43
2017-12-29T05:21:37.471Z,930.43
2017-12-29T05:22:05.657Z,930.45
2017-12-29T05:22:33.776Z,930.42
2017-12-29T05:23:02.113Z,930.41
2017-12-29T05:23:30.266Z,930.42
2017-12-29T05:23:58.281Z,930.4
2017-12-29T05:24:26.250Z,930.43
2017-12-29T05:24:54.393Z,930.39
2017-12-29T05:25:22.370Z,930.41
2017-12-29T05:25:50.531Z,930.39
2017-12-29T05:26:18.545Z,930.43
2017-12-29T05:26:46.598Z,930.4
2017-12-29T05:27:14.694Z,930.42
2017-12-29T05:27:42.764Z,930.42
2017-12-29T05:28:10.750Z,930.41
2017-12-29T05:28:38.943Z,930.43
2017-12-29T05:29:07.034Z,930.4
2017-12-29T05:29:35.092Z,930.44
2017-12-29T05:30:02.904Z,930.46
2017-12-29T05:30:30.948Z,930.45
2017-12-29T05:30:58.900Z,930.49
2017-12-29T05:31:27.070Z,930.45
2017-12-29T05:31:54.990Z,930.47
2017-12-29T05:32:22.982Z,930.49
2017-12-29T05:32:51.132Z,930.47
2017-12-29T05:33:19.263Z,930.48
2017-12-29T05:33:47.295Z,930.48
2017-12-29T05:34:15.373Z,930.49
2017-12-29T05:34:43.566Z,930.5
2017-12-29T05:35:11.567Z,930.48
2017-12-29T05:35:39.670Z,930.5
2017-12-29T05:36:07.543Z,930.46
2017-12-29T05:36:35.570Z,930.49
2017-12-29T05:37:03.483Z,930.46
2017-12-29T05:37:31.654Z,930.48
2017-12-29T05:37:59.829Z,930.52
2017-12-29T05:38:28.051Z,930.47
2017-12-29T05:38:56.061Z,930.48
2017-12-29T05:39:24.167Z,930.44
2017-12-29T05:39:52.285Z,930.46
2017-12-29T05:40:20.334Z,930.47
2017-12-29T05:40:48.460Z,930.45
2017-12-29T05:41:16.401Z,930.42
2017-12-29T05:41:44.433Z,930.45
2017-12-29T05:42:12.460Z,930.43
2017-12-29T05:42:40.517Z,930.41
2017-12-29T05:43:08.530Z,930.37
2017-12-29T05:43:36.648Z,930.37
2017-12-29T05:44:04.673Z,930.31
2017-12-29T05:44:32.794Z,930.32
2017-12-29T05:45:00.811Z,930.31
2017-12-29T05:45:28.809Z,930.3
2017-12-29T05:45:56.928Z,930.26
2017-12-29T05:46:24.975Z,930.3
2017-12-29T05:46:53.016Z,930.26
2017-12-29T05:47:20.900Z,930.29
2017-12-29T05:47:48.899Z,930.27
2017-12-29T05:48:16.997Z,930.26
2017-12-29T05:48:45.099Z,930.28
2017-12-29T05:49:12.851Z,930.26
2017-12-29T05:49:40.993Z,930.25
2017-12-29T05:50:09.000Z,930.26
2017-12-29T05:50:37.194Z,930.26
2017-12-29T05:51:05.222Z,930.25
2017-12-29T05:51:33.378Z,930.26
2017-12-29T05:52:01.513Z,930.25
2017-12-29T05:52:29.555Z,930.27
2017-12-29T05:52:57.527Z,930.28
2017-12-29T05:53:25.632Z,930.27